Time;durP1;ratioP1;P1;durP2;ratioP2;P2;SDS_P1;SDS_P2;PMS_P1;PMS_P2;Temp;Humidity;BMP_temperature;BMP_pressure;BME280_temperature;BME280_humidity;BME280_pressure;Samples;Min_cycle;Max_cycle;Signal;HPM_P1;HPM_P2
2022/10/29 00:01:00;;;;;;;10.50;6.67;;;;;;;14.61;100.00;98892.84;5138179;23;20576;-89
2022/10/29 00:03:03;;;;;;;11.17;7.10;;;;;;;14.59;99.95;98895.59;5161591;23;20580;-89
2022/10/29 00:05:07;;;;;;;13.80;7.40;;;;;;;14.58;99.61;98892.25;5161378;23;20575;-89
2022/10/29 00:07:10;;;;;;;13.23;7.10;;;;;;;14.57;98.86;98886.16;5157472;23;20548;-90
2022/10/29 00:09:13;;;;;;;13.40;6.90;;;;;;;14.54;98.92;98885.53;5159043;22;20591;-90
2022/10/29 00:11:20;;;;;;;15.13;7.37;;;;;;;14.56;99.16;98878.41;5159339;23;20642;-90
2022/10/29 00:13:23;;;;;;;14.17;6.43;;;;;;;14.54;100.00;98896.03;5135187;23;20604;-90
2022/10/29 00:15:26;;;;;;;15.13;7.30;;;;;;;14.53;99.18;98882.06;5188693;22;20636;-90
2022/10/29 00:17:29;;;;;;;13.03;7.10;;;;;;;14.54;100.00;98882.91;5137341;23;20587;-89
2022/10/29 00:19:32;;;;;;;11.50;6.17;;;;;;;14.53;100.00;98878.63;5190272;22;20554;-90
2022/10/29 00:21:36;;;;;;;14.37;6.70;;;;;;;14.51;100.00;98878.72;5163718;23;20582;-89
2022/10/29 00:23:40;;;;;;;12.30;6.17;;;;;;;14.50;100.00;98877.03;5162898;23;21122;-90
2022/10/29 00:25:43;;;;;;;13.10;6.30;;;;;;;14.48;100.00;98873.69;5190357;22;21188;-90
2022/10/29 00:27:48;;;;;;;18.03;6.37;;;;;;;14.50;100.00;98870.97;5162992;23;21132;-90
2022/10/29 00:29:55;;;;;;;10.97;6.97;;;;;;;14.48;99.71;98872.81;5163778;23;21090;-90
2022/10/29 00:31:57;;;;;;;11.73;6.23;;;;;;;14.50;100.00;98870.97;5161897;23;20567;-90
2022/10/29 00:34:01;;;;;;;17.93;7.00;;;;;;;14.48;100.00;98864.94;5162214;23;20633;-89
2022/10/29 00:36:10;;;;;;;11.27;6.90;;;;;;;14.49;99.50;98871.91;5135426;23;20988;-90
2022/10/29 00:38:13;;;;;;;11.33;6.30;;;;;;;14.47;99.16;98863.28;5137375;23;20587;-90
2022/10/29 00:40:16;;;;;;;10.63;6.83;;;;;;;14.44;99.36;98864.34;5138799;23;20912;-90
2022/10/29 00:42:19;;;;;;;14.57;6.50;;;;;;;14.43;99.37;98875.78;5190178;22;20581;-89
2022/10/29 00:44:28;;;;;;;14.20;6.17;;;;;;;14.40;98.98;98873.41;5163424;23;21207;-89
2022/10/29 00:46:34;;;;;;;10.50;7.37;;;;;;;14.41;99.55;98874.22;5137904;23;20617;-90
2022/10/29 00:48:42;;;;;;;17.73;7.20;;;;;;;14.39;99.16;98886.63;5138115;23;20938;-89
2022/10/29 00:50:46;;;;;;;12.37;7.50;;;;;;;14.37;99.22;98884.13;5163605;23;20670;-89
2022/10/29 00:52:50;;;;;;;15.90;6.40;;;;;;;14.31;98.93;98879.31;5163431;23;20915;-90
2022/10/29 00:54:54;;;;;;;11.77;5.60;;;;;;;14.30;99.06;98876.78;5138115;23;20616;-89
2022/10/29 00:57:00;;;;;;;11.57;6.40;;;;;;;14.27;98.62;98871.75;5137334;23;20575;-90
2022/10/29 00:59:03;;;;;;;15.30;6.57;;;;;;;14.25;99.96;98863.13;5189027;22;21085;-90
2022/10/29 01:01:08;;;;;;;11.03;6.30;;;;;;;14.22;98.95;98866.81;5136702;23;20579;-90
2022/10/29 01:03:11;;;;;;;12.10;6.60;;;;;;;14.21;99.16;98867.75;5136676;23;20603;-89
2022/10/29 01:05:18;;;;;;;10.60;7.00;;;;;;;14.20;98.62;98860.00;5189360;22;20566;-90
2022/10/29 01:07:21;;;;;;;10.43;6.47;;;;;;;14.18;99.33;98857.47;5162732;22;20572;-90
2022/10/29 01:09:24;;;;;;;10.93;6.10;;;;;;;14.18;98.89;98859.28;5162870;23;20587;-90
2022/10/29 01:11:35;;;;;;;9.50;6.07;;;;;;;14.16;98.94;98859.38;5188489;22;21113;-90
2022/10/29 01:13:50;;;;;;;14.70;5.97;;;;;;;14.12;100.00;98850.97;5187890;22;20590;-90
2022/10/29 01:15:58;;;;;;;13.47;6.37;;;;;;;14.13;99.52;98859.59;5136897;23;20578;-90
2022/10/29 01:18:11;;;;;;;16.30;7.10;;;;;;;14.12;99.80;98862.34;5189976;22;20578;-89
2022/10/29 01:20:47;;;;;;;11.30;7.07;;;;;;;14.12;100.00;98856.22;5163466;23;20581;-90
2022/10/29 01:22:58;;;;;;;14.63;6.80;;;;;;;14.09;99.87;98854.69;5138248;23;20587;-90
2022/10/29 01:25:16;;;;;;;14.70;6.80;;;;;;;14.05;99.60;98855.00;5137945;23;20575;-90
2022/10/29 01:27:56;;;;;;;14.27;6.63;;;;;;;14.01;99.28;98845.63;5138189;23;21147;-90
2022/10/29 01:30:06;;;;;;;10.57;5.80;;;;;;;13.96;98.83;98840.69;5163066;23;21117;-90
2022/10/29 01:32:12;;;;;;;13.77;6.90;;;;;;;13.94;99.31;98847.84;5163169;23;20626;-90
2022/10/29 01:34:21;;;;;;;13.43;6.67;;;;;;;13.89;99.22;98834.22;5137393;23;20615;-90
2022/10/29 01:36:29;;;;;;;19.70;7.00;;;;;;;13.87;99.16;98838.72;5164906;23;21168;-90
2022/10/29 01:38:36;;;;;;;15.23;7.40;;;;;;;13.90;98.93;98849.00;5164142;23;21175;-90
2022/10/29 01:40:46;;;;;;;9.30;6.13;;;;;;;13.87;99.88;98830.84;5164567;23;20574;-89
2022/10/29 01:42:52;;;;;;;11.93;6.20;;;;;;;13.89;99.68;98844.72;5164504;23;20619;-90
2022/10/29 01:45:00;;;;;;;13.70;6.63;;;;;;;13.89;100.00;98834.22;5164899;23;20573;-90
2022/10/29 01:47:05;;;;;;;14.43;7.20;;;;;;;13.89;98.36;98828.97;5164031;23;20571;-90
2022/10/29 01:49:14;;;;;;;12.23;5.60;;;;;;;13.84;99.03;98833.69;5190997;22;20581;-90
2022/10/29 01:51:20;;;;;;;9.67;6.20;;;;;;;13.86;99.10;98838.81;5139496;23;20633;-90
2022/10/29 01:53:24;;;;;;;9.37;5.67;;;;;;;13.86;99.50;98834.44;5164556;23;20572;-89
2022/10/29 01:55:29;;;;;;;11.77;5.53;;;;;;;13.87;100.00;98838.72;5191315;22;20981;-89
2022/10/29 01:57:37;;;;;;;10.10;6.77;;;;;;;13.86;99.46;98831.81;5140113;23;20572;-90
2022/10/29 01:59:40;;;;;;;11.13;5.77;;;;;;;13.87;100.00;98833.47;5191033;22;20620;-90
2022/10/29 02:02:06;;;;;;;11.60;6.17;;;;;;;13.88;99.56;98834.31;5162931;23;20581;-90
2022/10/29 02:04:36;;;;;;;11.30;5.60;;;;;;;13.87;100.00;98836.09;5137748;23;20580;-89
2022/10/29 02:06:43;;;;;;;9.20;5.50;;;;;;;13.84;99.93;98832.84;5083742;23;20672;-90
2022/10/29 02:08:55;;;;;;;7.37;6.17;;;;;;;13.82;98.92;98822.47;5163378;22;20581;-89
2022/10/29 02:11:02;;;;;;;8.47;6.17;;;;;;;13.80;99.15;98816.50;5190741;22;20552;-90
2022/10/29 02:13:05;;;;;;;10.03;6.77;;;;;;;13.77;99.57;98819.34;5162796;23;21149;-90
2022/10/29 02:15:11;;;;;;;9.37;6.30;;;;;;;13.75;99.79;98810.72;5137170;23;20639;-89
2022/10/29 02:17:14;;;;;;;12.80;5.97;;;;;;;13.75;98.99;98805.47;5191373;22;20595;-90
2022/10/29 02:19:17;;;;;;;10.03;5.87;;;;;;;13.75;99.53;98810.72;5164233;23;20581;-89
2022/10/29 02:21:22;;;;;;;15.50;6.70;;;;;;;13.74;99.99;98809.06;5189278;22;20646;-90
2022/10/29 02:23:25;;;;;;;14.33;6.63;;;;;;;13.75;100.00;98815.13;5163116;23;20579;-91
2022/10/29 02:25:29;;;;;;;9.33;5.10;;;;;;;13.75;99.87;98809.88;5138861;23;21131;-90
2022/10/29 02:27:34;;;;;;;10.07;6.20;;;;;;;13.75;100.00;98809.88;5163139;23;20633;-89
2022/10/29 02:29:37;;;;;;;16.70;6.73;;;;;;;13.75;99.91;98809.88;5162978;23;21154;-89
2022/10/29 02:31:40;;;;;;;9.83;5.63;;;;;;;13.72;99.51;98805.69;5138819;23;20586;-90
2022/10/29 02:33:43;;;;;;;9.43;5.97;;;;;;;13.70;99.80;98804.97;5164342;23;20582;-89
2022/10/29 02:35:46;;;;;;;10.93;6.60;;;;;;;13.70;99.39;98797.09;5163206;23;20615;-89
2022/10/29 02:37:50;;;;;;;12.03;5.77;;;;;;;13.68;99.90;98788.50;5164362;23;20573;-90
2022/10/29 02:39:53;;;;;;;9.70;5.57;;;;;;;13.67;99.59;98794.69;5138587;23;20576;-90
2022/10/29 02:41:56;;;;;;;13.40;5.80;;;;;;;13.66;99.22;98784.31;5164411;23;20566;-90
2022/10/29 02:43:59;;;;;;;13.20;5.90;;;;;;;13.64;99.49;98792.28;5138955;23;20578;-89
2022/10/29 02:46:17;;;;;;;7.77;5.50;;;;;;;13.65;100.00;98788.72;5189977;22;21139;-90
2022/10/29 02:48:20;;;;;;;13.00;5.90;;;;;;;13.64;99.87;98790.63;5164376;23;20620;-89
2022/10/29 02:50:25;;;;;;;14.93;5.70;;;;;;;13.61;99.92;98791.66;5190602;22;20650;-90
2022/10/29 02:52:28;;;;;;;11.30;5.63;;;;;;;13.62;100.00;98789.88;5191477;22;20569;-89
2022/10/29 02:54:32;;;;;;;15.10;6.20;;;;;;;13.62;100.00;98793.34;5163811;23;20685;-90
2022/10/29 02:56:35;;;;;;;14.57;5.60;;;;;;;13.63;100.00;98794.19;5190636;22;20623;-89
2022/10/29 02:58:39;;;;;;;10.47;5.40;;;;;;;13.59;100.00;98792.69;5163814;23;20653;-90
2022/10/29 03:00:42;;;;;;;9.67;5.23;;;;;;;13.59;100.00;98793.56;5162503;23;20666;-90
2022/10/29 03:02:45;;;;;;;11.50;5.50;;;;;;;13.55;99.70;98792.09;5138112;23;20579;-90
2022/10/29 03:04:48;;;;;;;9.30;4.87;;;;;;;13.56;99.37;98787.66;5162222;23;20584;-88
2022/10/29 03:06:51;;;;;;;8.07;5.00;;;;;;;13.51;98.43;98785.38;5189587;22;20676;-89
2022/10/29 03:08:54;;;;;;;8.20;5.40;;;;;;;13.49;98.75;98782.03;5162921;22;20649;-89
2022/10/29 03:10:58;;;;;;;8.80;5.73;;;;;;;13.52;98.84;98791.47;5162967;23;20597;-89
2022/10/29 03:13:02;;;;;;;11.20;6.00;;;;;;;13.51;99.29;98787.16;5188842;22;20596;-89
2022/10/29 03:15:06;;;;;;;11.10;6.20;;;;;;;13.50;99.89;98780.22;5136819;23;20665;-90
2022/10/29 03:17:09;;;;;;;8.63;5.40;;;;;;;13.52;99.85;98789.69;5163518;23;20567;-90
2022/10/29 03:19:12;;;;;;;9.43;5.87;;;;;;;13.53;99.79;98795.75;5138759;23;20597;-89
2022/10/29 03:21:15;;;;;;;9.83;6.40;;;;;;;13.52;100.00;98796.72;5163554;23;20660;-90
2022/10/29 03:23:18;;;;;;;9.53;5.80;;;;;;;13.53;100.00;98798.38;5139062;23;20579;-89
2022/10/29 03:25:21;;;;;;;9.83;6.03;;;;;;;13.49;100.00;98789.88;5138374;23;20580;-90
2022/10/29 03:27:25;;;;;;;9.80;6.20;;;;;;;13.52;100.00;98794.09;5137978;23;20567;-89
2022/10/29 03:29:28;;;;;;;10.17;5.43;;;;;;;13.53;99.99;98799.22;5190537;22;20649;-90
2022/10/29 03:31:31;;;;;;;8.00;5.73;;;;;;;13.53;100.00;98803.59;5190611;22;20581;-90
2022/10/29 03:33:35;;;;;;;9.87;5.93;;;;;;;13.54;100.00;98798.25;5190374;22;20585;-90
2022/10/29 03:35:38;;;;;;;12.60;5.70;;;;;;;13.55;100.00;98796.50;5162700;23;20613;-90
2022/10/29 03:37:41;;;;;;;11.20;5.70;;;;;;;13.54;100.00;98800.88;5163430;23;20570;-90
2022/10/29 03:39:45;;;;;;;12.00;5.90;;;;;;;13.57;100.00;98797.22;5191057;22;20667;-90
2022/10/29 03:41:47;;;;;;;9.37;5.90;;;;;;;13.58;100.00;98804.16;5138411;23;20985;-90
2022/10/29 03:43:53;;;;;;;11.30;5.20;;;;;;;13.58;100.00;98807.59;5163860;23;20574;-90
2022/10/29 03:46:01;;;;;;;10.20;5.90;;;;;;;13.57;100.00;98800.66;5163336;23;20578;-90
2022/10/29 03:48:04;;;;;;;11.30;6.20;;;;;;;13.59;100.00;98801.44;5163255;23;20929;-90
2022/10/29 03:50:08;;;;;;;9.53;5.80;;;;;;;13.59;100.00;98793.56;5190594;22;20582;-90
2022/10/29 03:52:12;;;;;;;9.77;5.70;;;;;;;13.61;100.00;98796.06;5138979;23;20578;-91
2022/10/29 03:54:15;;;;;;;12.17;6.33;;;;;;;13.63;100.00;98789.75;5163085;23;20961;-90
2022/10/29 03:56:18;;;;;;;13.83;6.07;;;;;;;13.61;100.00;98794.28;5163517;23;21041;-90
2022/10/29 03:58:21;;;;;;;10.50;6.53;;;;;;;13.62;100.00;98797.72;5138358;23;20586;-88
2022/10/29 04:00:26;;;;;;;8.13;5.60;;;;;;;13.63;100.00;98794.19;5162402;23;20573;-90
2022/10/29 04:02:29;;;;;;;11.37;5.47;;;;;;;13.64;100.00;98795.88;5161771;23;20639;-89
2022/10/29 04:04:32;;;;;;;10.83;5.83;;;;;;;13.64;100.00;98801.94;5188715;22;20592;-90
2022/10/29 04:06:35;;;;;;;9.50;5.77;;;;;;;13.66;100.00;98800.88;5189516;22;20578;-89
2022/10/29 04:08:38;;;;;;;10.60;5.53;;;;;;;13.68;100.00;98804.25;5162490;22;20605;-89
2022/10/29 04:10:44;;;;;;;8.73;5.60;;;;;;;13.69;100.00;98795.41;5163040;23;20687;-89
2022/10/29 04:12:47;;;;;;;9.53;5.23;;;;;;;13.69;100.00;98794.59;5137131;23;20567;-90
2022/10/29 04:14:50;;;;;;;10.90;5.60;;;;;;;13.73;100.00;98794.25;5161680;23;21105;-90
2022/10/29 04:16:54;;;;;;;10.80;5.90;;;;;;;13.76;100.00;98801.09;5137486;23;20624;-90
2022/10/29 04:18:57;;;;;;;9.37;5.57;;;;;;;13.74;100.00;98798.56;5163602;23;20604;-90
2022/10/29 04:21:01;;;;;;;9.90;5.73;;;;;;;13.74;100.00;98798.56;5163788;23;20925;-90
2022/10/29 04:23:24;;;;;;;9.43;5.47;;;;;;;13.76;100.00;98803.72;5163586;23;20577;-90
2022/10/29 04:25:55;;;;;;;9.27;5.13;;;;;;;13.76;100.00;98791.44;5162906;23;20613;-89
2022/10/29 04:28:18;;;;;;;9.87;5.87;;;;;;;13.74;100.00;98790.72;5164036;23;21110;-90
2022/10/29 04:30:41;;;;;;;13.03;6.27;;;;;;;13.73;100.00;98796.06;5162764;23;20608;-90
2022/10/29 04:32:46;;;;;;;15.27;5.80;;;;;;;13.74;100.00;98797.72;5138594;23;20575;-90
2022/10/29 04:34:49;;;;;;;9.23;5.90;;;;;;;13.73;100.00;98807.38;5190142;22;20587;-89
2022/10/29 04:36:52;;;;;;;14.63;6.40;;;;;;;13.74;100.00;98809.06;5163345;23;20991;-89
2022/10/29 04:38:55;;;;;;;9.33;6.17;;;;;;;13.75;100.00;98815.13;5138927;23;20573;-90
2022/10/29 04:40:59;;;;;;;7.47;5.50;;;;;;;13.76;100.00;98809.78;5190664;22;20689;-90
2022/10/29 04:43:02;;;;;;;9.90;5.50;;;;;;;13.73;100.00;98803.94;5163113;23;20586;-89
2022/10/29 04:45:07;;;;;;;9.90;5.93;;;;;;;13.72;100.00;98808.31;5137160;23;20574;-89
2022/10/29 04:47:10;;;;;;;19.37;6.10;;;;;;;13.73;100.00;98806.53;5189310;22;20602;-90
2022/10/29 04:49:14;;;;;;;11.37;6.37;;;;;;;13.73;100.00;98801.31;5163814;23;20581;-90
2022/10/29 04:51:20;;;;;;;12.30;6.07;;;;;;;13.76;100.00;98804.53;5137745;23;20739;-90
2022/10/29 04:53:23;;;;;;;12.70;6.00;;;;;;;13.77;100.00;98800.97;5163679;23;20579;-89
2022/10/29 04:55:26;;;;;;;10.93;5.80;;;;;;;13.77;100.00;98808.84;5189636;22;20553;-90
2022/10/29 04:57:29;;;;;;;12.47;6.60;;;;;;;13.76;100.00;98809.78;5137567;23;20586;-90
2022/10/29 04:59:32;;;;;;;14.33;6.73;;;;;;;13.77;100.00;98818.47;5137303;23;21220;-90
2022/10/29 05:01:35;;;;;;;10.00;5.80;;;;;;;13.77;100.00;98808.00;5188706;22;20577;-90
2022/10/29 05:03:38;;;;;;;12.93;5.87;;;;;;;13.76;100.00;98812.41;5162686;23;20661;-90
2022/10/29 05:05:45;;;;;;;9.10;6.00;;;;;;;13.78;100.00;98815.75;5136310;23;20570;-90
2022/10/29 05:07:48;;;;;;;10.07;5.40;;;;;;;13.78;100.00;98814.91;5137499;23;20619;-90
2022/10/29 05:09:51;;;;;;;8.70;5.50;;;;;;;13.74;100.00;98803.81;5162656;23;20594;-90
2022/10/29 05:11:54;;;;;;;9.37;5.63;;;;;;;13.73;100.00;98809.16;5163853;23;20555;-90
2022/10/29 05:13:57;;;;;;;11.40;6.00;;;;;;;13.72;100.00;98808.31;5190962;22;20574;-89
2022/10/29 05:16:00;;;;;;;15.53;6.63;;;;;;;13.72;100.00;98808.31;5163567;23;20636;-90
2022/10/29 05:18:04;;;;;;;11.03;5.47;;;;;;;13.70;100.00;98797.09;5164963;23;20580;-90
2022/10/29 05:20:08;;;;;;;9.40;5.57;;;;;;;13.67;100.00;98797.31;5163616;23;20578;-89
2022/10/29 05:22:12;;;;;;;9.30;5.00;;;;;;;13.66;100.00;98794.78;5191820;22;20560;-89
2022/10/29 05:24:15;;;;;;;10.87;6.20;;;;;;;13.66;100.00;98794.78;5164779;23;21187;-90
2022/10/29 05:26:18;;;;;;;10.13;5.90;;;;;;;13.64;100.00;98792.28;5163565;23;20583;-89
2022/10/29 05:28:22;;;;;;;10.80;6.40;;;;;;;13.64;100.00;98802.75;5139597;23;21134;-89
2022/10/29 05:30:26;;;;;;;13.47;6.17;;;;;;;13.64;100.00;98793.25;5139378;23;20581;-90
2022/10/29 05:32:29;;;;;;;10.17;6.10;;;;;;;13.62;100.00;98802.97;5191928;22;20588;-90
2022/10/29 05:34:32;;;;;;;10.07;5.63;;;;;;;13.60;100.00;98789.97;5163880;23;20604;-89
2022/10/29 05:36:35;;;;;;;14.50;6.33;;;;;;;13.58;100.00;98794.50;5164946;23;20652;-90
2022/10/29 05:38:39;;;;;;;7.97;5.50;;;;;;;13.58;100.00;98791.03;5192084;22;21073;-89
2022/10/29 05:40:43;;;;;;;10.67;5.60;;;;;;;13.58;100.00;98791.03;5164551;23;20957;-90
2022/10/29 05:42:47;;;;;;;14.20;5.93;;;;;;;13.57;100.00;98794.59;5191835;22;20990;-90
2022/10/29 05:44:50;;;;;;;9.63;5.60;;;;;;;13.56;100.00;98798.16;5139093;23;20577;-90
2022/10/29 05:46:53;;;;;;;9.00;5.60;;;;;;;13.55;100.00;98792.09;5163747;23;20577;-90
2022/10/29 05:48:56;;;;;;;10.70;6.00;;;;;;;13.54;100.00;98806.13;5138951;23;20588;-90
2022/10/29 05:50:59;;;;;;;12.73;5.80;;;;;;;13.53;100.00;98796.59;5189261;22;20582;-90
2022/10/29 05:53:03;;;;;;;11.13;5.63;;;;;;;13.53;100.00;98796.59;5191689;22;20578;-89
2022/10/29 05:55:08;;;;;;;12.70;5.83;;;;;;;13.52;100.00;98794.09;5138996;23;20574;-89
2022/10/29 05:57:11;;;;;;;12.00;6.07;;;;;;;13.51;100.00;98792.41;5139819;23;20668;-90
2022/10/29 05:59:15;;;;;;;13.07;5.80;;;;;;;13.50;100.00;98799.44;5163569;23;20994;-90
2022/10/29 06:01:19;;;;;;;8.00;5.70;;;;;;;13.49;100.00;98797.75;5162833;23;20639;-90
2022/10/29 06:03:22;;;;;;;16.37;5.87;;;;;;;13.48;100.00;98790.00;5137301;23;20608;-90
2022/10/29 06:05:26;;;;;;;14.17;6.37;;;;;;;13.49;100.00;98791.69;5137962;23;20574;-90
2022/10/29 06:07:29;;;;;;;11.77;6.20;;;;;;;13.47;100.00;98794.41;5163826;22;20579;-90
2022/10/29 06:09:32;;;;;;;8.60;5.53;;;;;;;13.47;100.00;98798.78;5138306;23;20571;-90
2022/10/29 06:11:37;;;;;;;12.23;5.70;;;;;;;13.45;100.00;98793.66;5163829;23;20585;-90
2022/10/29 06:13:40;;;;;;;10.70;5.90;;;;;;;13.45;100.00;98792.81;5139170;23;20574;-90
2022/10/29 06:15:43;;;;;;;10.83;6.03;;;;;;;13.45;100.00;98792.81;5163445;23;20561;-90
2022/10/29 06:17:46;;;;;;;11.43;6.40;;;;;;;13.46;100.00;98791.88;5190152;22;20959;-89
2022/10/29 06:19:49;;;;;;;9.83;5.80;;;;;;;13.45;100.00;98790.19;5191966;22;20548;-90
2022/10/29 06:21:53;;;;;;;11.60;6.30;;;;;;;13.45;100.00;98791.03;5164059;23;20638;-90
2022/10/29 06:24:02;;;;;;;9.80;5.77;;;;;;;13.43;100.00;98794.72;5163732;23;20996;-90
2022/10/29 06:26:05;;;;;;;11.50;5.97;;;;;;;13.38;100.00;98794.16;5163777;23;20565;-90
2022/10/29 06:28:13;;;;;;;9.43;5.07;;;;;;;13.33;99.82;98791.03;5164209;23;20675;-90
2022/10/29 06:30:17;;;;;;;10.07;6.33;;;;;;;13.36;99.57;98786.41;5163161;23;20551;-90
2022/10/29 06:32:20;;;;;;;12.60;6.27;;;;;;;13.39;100.00;98785.38;5139437;23;20976;-90
2022/10/29 06:34:23;;;;;;;9.13;5.40;;;;;;;13.41;100.00;98778.25;5190606;22;20612;-90
2022/10/29 06:36:26;;;;;;;12.43;6.37;;;;;;;13.45;100.00;98792.81;5163589;23;20989;-90
2022/10/29 06:38:29;;;;;;;11.97;6.37;;;;;;;13.47;100.00;98777.81;5190427;22;21218;-90
2022/10/29 06:40:32;;;;;;;13.83;6.50;;;;;;;13.50;100.00;98788.09;5139106;23;20583;-89
2022/10/29 06:42:35;;;;;;;9.30;6.00;;;;;;;13.51;100.00;98795.84;5164062;23;20604;-90
2022/10/29 06:44:39;;;;;;;10.30;6.13;;;;;;;13.58;100.00;98801.53;5163853;23;20590;-90
2022/10/29 06:46:42;;;;;;;12.37;6.17;;;;;;;13.63;100.00;98802.03;5163565;23;20573;-90
2022/10/29 06:48:45;;;;;;;11.37;6.00;;;;;;;13.68;100.00;98804.25;5164260;23;20569;-90
2022/10/29 06:50:48;;;;;;;10.23;5.87;;;;;;;13.72;100.00;98808.31;5163574;23;20640;-90
2022/10/29 06:52:56;;;;;;;14.27;6.83;;;;;;;13.77;100.00;98800.97;5139061;23;20570;-89
2022/10/29 06:55:01;;;;;;;14.03;6.37;;;;;;;13.85;100.00;98816.19;5190921;22;20522;-90
2022/10/29 06:57:04;;;;;;;12.00;6.57;;;;;;;13.91;100.00;98811.34;5190468;22;20616;-89
2022/10/29 06:59:07;;;;;;;12.50;6.80;;;;;;;13.99;100.00;98805.56;5189818;22;20606;-89
2022/10/29 07:01:11;;;;;;;10.90;6.20;;;;;;;14.08;100.00;98812.81;5160323;23;20574;-89
2022/10/29 07:03:18;;;;;;;10.23;5.33;;;;;;;14.14;100.00;98814.03;5160543;23;20582;-89
2022/10/29 07:05:21;;;;;;;8.87;5.83;;;;;;;14.16;99.80;98817.41;5135847;23;20579;-89
2022/10/29 07:07:24;;;;;;;7.67;5.47;;;;;;;14.17;99.04;98813.00;5136145;23;20637;-87
2022/10/29 07:09:27;;;;;;;14.73;5.90;;;;;;;14.17;99.28;98810.38;5136385;23;21184;-89
2022/10/29 07:11:30;;;;;;;11.83;5.30;;;;;;;14.19;98.07;98816.34;5162674;23;20567;-89
2022/10/29 07:13:33;;;;;;;9.07;5.40;;;;;;;14.28;98.07;98815.69;5135155;23;20695;-88
2022/10/29 07:15:37;;;;;;;12.20;6.23;;;;;;;14.34;99.74;98815.25;5137084;23;20976;-88
2022/10/29 07:17:42;;;;;;;14.00;6.77;;;;;;;14.42;99.84;98818.19;5163181;23;20610;-88
2022/10/29 07:19:45;;;;;;;13.63;6.80;;;;;;;14.52;100.00;98820.00;5163643;23;20593;-88
2022/10/29 07:21:48;;;;;;;12.20;7.33;;;;;;;14.61;99.44;98825.44;5163573;23;20579;-88
2022/10/29 07:23:51;;;;;;;12.97;7.50;;;;;;;14.66;99.24;98819.84;5164008;23;20904;-88
2022/10/29 07:25:54;;;;;;;10.87;7.10;;;;;;;14.72;99.93;98828.13;5137429;23;20578;-88
2022/10/29 07:28:02;;;;;;;14.93;7.73;;;;;;;14.85;99.78;98830.69;5137865;23;20579;-88
2022/10/29 07:30:06;;;;;;;10.77;6.70;;;;;;;14.99;99.28;98836.59;5137444;23;20610;-87
2022/10/29 07:32:10;;;;;;;13.90;7.40;;;;;;;15.11;99.88;98835.69;5186998;22;20652;-87
2022/10/29 07:34:14;;;;;;;12.87;7.10;;;;;;;15.17;99.43;98841.34;5160446;23;20628;-89
2022/10/29 07:36:17;;;;;;;14.80;7.17;;;;;;;15.22;97.91;98835.75;5135626;23;20583;-87
2022/10/29 07:38:20;;;;;;;11.63;7.10;;;;;;;15.30;98.49;98836.00;5190435;22;20679;-88
2022/10/29 07:40:23;;;;;;;13.00;6.67;;;;;;;15.46;99.82;98847.06;5137882;23;20578;-88
2022/10/29 07:42:26;;;;;;;18.43;8.43;;;;;;;15.55;97.03;98845.38;5187853;22;20558;-91
2022/10/29 07:44:29;;;;;;;11.87;6.83;;;;;;;15.65;99.00;98850.78;5163396;23;20567;-88
2022/10/29 07:46:32;;;;;;;9.13;6.47;;;;;;;15.75;97.57;98855.22;5163327;23;20597;-87
2022/10/29 07:48:35;;;;;;;17.70;6.70;;;;;;;15.86;96.13;98852.63;5189941;22;21472;-87
2022/10/29 07:50:40;;;;;;;14.60;7.30;;;;;;;15.95;95.39;98854.53;5189488;22;20677;-88
2022/10/29 07:52:43;;;;;;;13.83;6.97;;;;;;;15.97;96.62;98859.69;5163474;23;20583;-87
2022/10/29 07:54:46;;;;;;;13.30;7.03;;;;;;;15.93;95.29;98861.69;5161250;23;20582;-87
2022/10/29 07:56:51;;;;;;;13.97;7.10;;;;;;;15.98;95.48;98864.78;5138253;23;20572;-87
2022/10/29 07:58:54;;;;;;;11.03;6.00;;;;;;;16.09;94.92;98859.56;5164173;23;20603;-87
2022/10/29 08:00:59;;;;;;;13.37;6.40;;;;;;;16.25;95.32;98865.31;5162926;23;20555;-87
2022/10/29 08:03:02;;;;;;;12.50;7.50;;;;;;;16.39;95.08;98872.97;5136073;23;20592;-87
2022/10/29 08:05:06;;;;;;;14.60;7.00;;;;;;;16.57;95.09;98870.56;5186655;22;20563;-87
2022/10/29 08:07:10;;;;;;;9.80;6.13;;;;;;;16.61;94.26;98868.50;5136457;23;20588;-87
2022/10/29 08:09:14;;;;;;;12.50;6.40;;;;;;;16.48;92.74;98865.19;5137144;23;20615;-87
2022/10/29 08:11:17;;;;;;;11.53;6.60;;;;;;;16.37;94.24;98867.00;5161668;23;20619;-88
2022/10/29 08:13:20;;;;;;;11.20;6.17;;;;;;;16.30;94.63;98860.56;5188850;22;20622;-88
2022/10/29 08:15:24;;;;;;;14.07;7.50;;;;;;;16.29;95.26;98866.75;5160514;23;20567;-90
2022/10/29 08:17:29;;;;;;;23.23;15.90;;;;;;;16.31;94.64;98868.31;5162716;23;20678;-89
2022/10/29 08:19:32;;;;;;;14.40;7.63;;;;;;;16.30;95.68;98864.00;5188824;22;21165;-89
2022/10/29 08:21:35;;;;;;;10.43;6.40;;;;;;;16.31;94.73;98865.69;5136313;23;20584;-90
2022/10/29 08:23:39;;;;;;;12.13;7.03;;;;;;;16.30;94.42;98864.00;5138232;23;20616;-89
2022/10/29 08:25:43;;;;;;;11.87;6.77;;;;;;;16.31;93.90;98870.09;5162965;23;20583;-88
2022/10/29 08:27:46;;;;;;;21.77;7.60;;;;;;;16.34;94.27;98867.22;5136393;23;20617;-89
2022/10/29 08:29:49;;;;;;;13.80;7.20;;;;;;;16.35;95.43;98866.28;5161379;23;20610;-88
2022/10/29 08:31:52;;;;;;;10.77;6.33;;;;;;;16.35;96.30;98858.38;5161859;23;20572;-88
2022/10/29 08:33:55;;;;;;;11.33;6.90;;;;;;;16.37;94.28;98859.09;5187969;22;20586;-87
2022/10/29 08:35:58;;;;;;;15.97;7.20;;;;;;;16.40;95.78;98856.22;5161071;23;20622;-88
2022/10/29 08:38:01;;;;;;;16.40;7.60;;;;;;;16.40;95.54;98861.47;5139048;23;20584;-89
2022/10/29 08:40:07;;;;;;;13.33;7.20;;;;;;;16.42;96.08;98859.53;5138792;23;20664;-88
2022/10/29 08:42:22;;;;;;;14.23;7.00;;;;;;;16.54;95.46;98857.63;5164390;23;20588;-89
2022/10/29 08:44:46;;;;;;;12.10;7.27;;;;;;;16.86;96.12;98861.13;5137760;23;20590;-88
2022/10/29 08:46:50;;;;;;;12.60;6.83;;;;;;;17.03;95.45;98860.59;5164699;23;20572;-88
2022/10/29 08:48:56;;;;;;;10.57;6.83;;;;;;;17.12;95.43;98860.69;5141044;23;20590;-88
2022/10/29 08:51:03;;;;;;;15.97;7.70;;;;;;;17.29;95.52;98851.41;5139745;23;20661;-88
2022/10/29 08:53:06;;;;;;;16.07;7.37;;;;;;;17.40;94.31;98857.47;5138841;23;20643;-88
2022/10/29 08:55:34;;;;;;;12.60;7.50;;;;;;;17.52;94.93;98859.91;5165473;23;20577;-88
2022/10/29 08:57:40;;;;;;;10.30;6.77;;;;;;;17.58;95.22;98869.13;5165346;23;20627;-88
2022/10/29 08:59:48;;;;;;;19.00;7.70;;;;;;;17.66;94.58;98862.22;5136610;23;20750;-88
2022/10/29 09:01:52;;;;;;;21.50;7.73;;;;;;;17.74;94.97;98862.44;5190712;22;21138;-89
2022/10/29 09:03:56;;;;;;;11.20;7.50;;;;;;;17.81;94.59;98858.28;5186538;22;21158;-88
2022/10/29 09:06:09;;;;;;;17.93;10.63;;;;;;;17.88;94.92;98851.53;5161156;23;21108;-89
2022/10/29 09:08:25;;;;;;;11.60;6.37;;;;;;;17.91;92.98;98856.56;5158370;22;20628;-87
2022/10/29 09:10:33;;;;;;;12.17;7.93;;;;;;;17.92;93.73;98855.59;5188075;22;20584;-88
2022/10/29 09:12:50;;;;;;;12.23;6.50;;;;;;;17.98;93.89;98860.31;5136760;23;20581;-89
2022/10/29 09:15:10;;;;;;;9.60;6.47;;;;;;;18.03;93.52;98855.50;5159990;23;20593;-88
2022/10/29 09:17:21;;;;;;;10.90;6.17;;;;;;;18.06;92.56;98858.72;5163372;23;20570;-88
2022/10/29 09:19:32;;;;;;;14.73;6.83;;;;;;;18.08;92.84;98858.56;5191158;22;20608;-89
2022/10/29 09:21:43;;;;;;;12.97;6.43;;;;;;;18.10;92.71;98859.25;5164475;23;20577;-88
2022/10/29 09:23:58;;;;;;;20.77;7.47;;;;;;;18.10;91.99;98852.19;5164493;23;21119;-88
2022/10/29 09:26:04;;;;;;;11.30;6.60;;;;;;;18.09;91.56;98847.88;5164144;23;21256;-88
2022/10/29 09:28:16;;;;;;;11.57;6.07;;;;;;;18.08;91.11;98854.13;5164017;23;21177;-88
2022/10/29 09:30:20;;;;;;;17.43;6.70;;;;;;;18.09;90.71;98847.06;5164267;23;20625;-88
2022/10/29 09:32:26;;;;;;;14.80;6.47;;;;;;;18.10;90.41;98848.69;5191547;22;20553;-88
2022/10/29 09:34:31;;;;;;;15.27;6.30;;;;;;;18.16;91.29;98846.44;5164154;23;20614;-89
2022/10/29 09:36:34;;;;;;;8.90;6.40;;;;;;;18.29;91.37;98846.19;5190904;22;21205;-89
2022/10/29 09:38:42;;;;;;;18.03;6.83;;;;;;;18.47;91.92;98856.81;5139173;23;20587;-89
2022/10/29 09:40:46;;;;;;;12.50;7.20;;;;;;;18.68;92.40;98844.34;5139020;23;20562;-88
2022/10/29 09:42:50;;;;;;;14.47;7.03;;;;;;;18.90;92.36;98849.41;5164341;23;20605;-89